Time;durP1;ratioP1;P1;durP2;ratioP2;P2;SDS_P1;SDS_P2;PMS_P1;PMS_P2;Temp;Humidity;BMP_temperature;BMP_pressure;BME280_temperature;BME280_humidity;BME280_pressure;Samples;Min_cycle;Max_cycle;Signal;HPM_P1;HPM_P2
2022/06/27 00:01:31;;;;;;;16.13;8.77;;;;;;;17.85;100.00;99577.47;12184402;19;20494;-79
2022/06/27 00:05:33;;;;;;;23.63;11.57;;;;;;;17.88;100.00;99584.41;12203806;19;20013;-80
2022/06/27 00:09:35;;;;;;;25.52;11.50;;;;;;;17.93;100.00;99589.88;12210211;19;20030;-80
2022/06/27 00:13:36;;;;;;;22.00;11.38;;;;;;;18.03;100.00;99617.59;12181457;19;20033;-79
2022/06/27 00:17:39;;;;;;;34.53;12.85;;;;;;;18.11;100.00;99641.97;12204348;19;20587;-80
2022/06/27 00:21:41;;;;;;;32.45;13.10;;;;;;;18.13;100.00;99619.38;12207541;19;20021;-80
2022/06/27 00:25:43;;;;;;;29.38;12.45;;;;;;;18.22;100.00;99587.69;12181727;19;20036;-79
2022/06/27 00:29:45;;;;;;;35.47;13.00;;;;;;;18.18;100.00;99558.78;12200920;19;20368;-80
2022/06/27 00:33:46;;;;;;;26.67;12.97;;;;;;;18.20;100.00;99559.31;12197063;19;20010;-82
2022/06/27 00:37:48;;;;;;;32.47;13.40;;;;;;;18.22;100.00;99570.97;12221839;19;20014;-80
2022/06/27 00:41:50;;;;;;;31.73;12.70;;;;;;;18.22;100.00;99576.53;12208503;19;20459;-81
2022/06/27 00:45:52;;;;;;;26.43;11.57;;;;;;;18.22;100.00;99612.78;12195553;19;20042;-81
2022/06/27 00:49:54;;;;;;;22.52;10.48;;;;;;;18.29;100.00;99645.88;12215389;19;20010;-80
2022/06/27 00:53:56;;;;;;;33.30;12.45;;;;;;;18.32;100.00;99664.81;12235680;19;20018;-78
2022/06/27 00:58:00;;;;;;;24.70;11.85;;;;;;;18.29;100.00;99659.81;12210316;19;20011;-81
2022/06/27 01:02:03;;;;;;;28.08;13.05;;;;;;;18.31;100.00;99651.16;12201999;19;20022;-81
2022/06/27 01:06:06;;;;;;;26.90;12.88;;;;;;;18.31;100.00;99640.81;12221946;19;20022;-82
2022/06/27 01:10:08;;;;;;;26.75;12.55;;;;;;;18.37;100.00;99638.78;12192442;19;20023;-82
2022/06/27 01:14:11;;;;;;;34.42;13.77;;;;;;;18.45;100.00;99655.63;12213744;19;20098;-83
2022/06/27 01:18:13;;;;;;;34.50;14.65;;;;;;;18.55;100.00;99656.59;12206179;19;20010;-79
2022/06/27 01:22:17;;;;;;;34.15;13.88;;;;;;;18.61;100.00;99666.53;12195678;19;20022;-83
2022/06/27 01:26:20;;;;;;;42.00;16.80;;;;;;;18.62;100.00;99652.28;12210164;19;20023;-80
2022/06/27 01:30:25;;;;;;;43.35;16.23;;;;;;;18.62;100.00;99638.31;12211756;19;20029;-82
2022/06/27 01:34:27;;;;;;;32.03;13.68;;;;;;;18.59;100.00;99611.03;12195874;19;20026;-80
2022/06/27 01:38:29;;;;;;;35.65;13.93;;;;;;;18.55;100.00;99572.88;12206459;19;20254;-81
2022/06/27 01:42:31;;;;;;;33.30;13.80;;;;;;;18.51;100.00;99547.56;12201027;19;20101;-82
2022/06/27 01:46:46;;;;;;;31.88;14.52;;;;;;;18.46;100.00;99589.50;12178185;19;20089;-83
2022/06/27 01:50:50;;;;;;;38.83;15.45;;;;;;;18.43;100.00;99532.34;12200041;19;20543;-78
2022/06/27 01:54:52;;;;;;;31.30;13.30;;;;;;;18.31;100.00;99387.00;12180218;19;20006;-82
2022/06/27 01:58:57;;;;;;;19.77;11.27;;;;;;;18.20;100.00;99394.78;12211393;19;20011;-80
2022/06/27 02:03:03;;;;;;;17.80;10.57;;;;;;;18.28;100.00;99462.94;12230140;19;20007;-81
2022/06/27 02:07:12;;;;;;;20.23;11.35;;;;;;;18.34;100.00;99444.13;12199219;19;20022;-81
2022/06/27 02:11:14;;;;;;;27.37;14.17;;;;;;;18.33;100.00;99437.72;12215502;19;20573;-80
2022/06/27 02:15:17;;;;;;;23.55;12.52;;;;;;;18.36;100.00;99439.91;12210861;19;20452;-79
2022/06/27 02:19:21;;;;;;;25.90;14.40;;;;;;;18.29;100.00;99453.41;12199683;19;20014;-82
2022/06/27 02:23:23;;;;;;;23.20;13.80;;;;;;;18.27;100.00;99466.03;12232995;19;20017;-81
2022/06/27 02:27:29;;;;;;;32.30;14.52;;;;;;;18.31;100.00;99467.06;12211111;19;20086;-79
2022/06/27 02:31:31;;;;;;;31.63;15.48;;;;;;;18.30;100.00;99468.22;12184430;19;20010;-80
2022/06/27 02:35:32;;;;;;;31.77;14.85;;;;;;;18.28;100.00;99457.34;12206997;19;20023;-82
2022/06/27 02:39:38;;;;;;;38.78;16.83;;;;;;;18.25;100.00;99446.81;12209122;19;20015;-80
2022/06/27 02:43:44;;;;;;;31.63;16.17;;;;;;;18.26;100.00;99439.25;12183992;19;20011;-80
2022/06/27 02:47:49;;;;;;;43.67;18.67;;;;;;;18.24;100.00;99416.47;12222208;19;20018;-81
2022/06/27 02:52:08;;;;;;;40.92;17.58;;;;;;;18.23;100.00;99418.41;12196768;19;20007;-81
2022/06/27 02:56:26;;;;;;;33.70;16.80;;;;;;;18.17;100.00;99387.03;12216124;19;20539;-80
2022/06/27 03:00:30;;;;;;;30.25;16.33;;;;;;;18.12;100.00;99359.25;12204436;19;20011;-80
2022/06/27 03:04:34;;;;;;;39.28;18.08;;;;;;;18.13;100.00;99355.31;12191859;19;20014;-80
2022/06/27 03:08:37;;;;;;;43.92;18.98;;;;;;;18.12;100.00;99336.94;12219249;19;20018;-80
2022/06/27 03:12:40;;;;;;;46.00;20.98;;;;;;;18.10;100.00;99321.66;12215432;19;20010;-81
2022/06/27 03:16:43;;;;;;;43.90;19.10;;;;;;;18.07;100.00;99325.88;12184887;19;20013;-81
2022/06/27 03:20:47;;;;;;;45.33;18.63;;;;;;;18.07;100.00;99347.38;12204396;19;20027;-81
2022/06/27 03:24:57;;;;;;;56.83;21.40;;;;;;;18.13;100.00;99396.31;12182870;19;20010;-81
2022/06/27 03:28:59;;;;;;;47.03;21.20;;;;;;;18.14;100.00;99423.88;12201684;19;20652;-81
2022/06/27 03:33:01;;;;;;;57.92;21.08;;;;;;;18.17;100.00;99444.75;12207316;19;20034;-81
2022/06/27 03:37:08;;;;;;;43.17;18.95;;;;;;;18.18;100.00;99440.84;12175431;19;20007;-81
2022/06/27 03:41:09;;;;;;;53.53;20.40;;;;;;;18.20;100.00;99442.19;12200847;19;20015;-81
2022/06/27 03:45:11;;;;;;;68.60;23.77;;;;;;;18.26;100.00;99442.88;12203926;19;20020;-80
2022/06/27 03:53:45;;;;;;;62.90;21.50;;;;;;;18.37;100.00;99440.72;12220340;19;20443;-83
2022/06/27 03:57:52;;;;;;;51.22;21.02;;;;;;;18.45;100.00;99448.38;12210830;19;20014;-82
2022/06/27 04:01:55;;;;;;;50.67;20.42;;;;;;;18.54;100.00;99460.44;12188062;19;20026;-82
2022/06/27 04:06:02;;;;;;;55.38;23.38;;;;;;;18.58;100.00;99458.66;12207534;19;20547;-83
2022/06/27 04:10:04;;;;;;;71.53;26.67;;;;;;;18.62;100.00;99448.56;12188711;19;20008;-83
2022/06/27 04:14:06;;;;;;;69.30;24.38;;;;;;;18.61;100.00;99487.94;12207860;19;20014;-83
2022/06/27 04:18:26;;;;;;;70.47;26.05;;;;;;;18.62;100.00;99484.00;12215467;19;20020;-81
2022/06/27 04:22:28;;;;;;;65.18;25.58;;;;;;;18.61;100.00;99499.09;12193021;19;20083;-83
2022/06/27 04:26:30;;;;;;;66.25;25.30;;;;;;;18.61;100.00;99515.81;12210173;19;20515;-80
2022/06/27 04:30:33;;;;;;;54.67;23.80;;;;;;;18.59;100.00;99518.94;12215376;19;20062;-82
2022/06/27 04:34:35;;;;;;;68.93;25.05;;;;;;;18.62;100.00;99520.25;12189218;19;20260;-83
2022/06/27 04:38:38;;;;;;;65.43;25.30;;;;;;;18.67;100.00;99523.78;12215930;19;20060;-81
2022/06/27 04:43:03;;;;;;;62.33;24.77;;;;;;;18.74;100.00;99550.47;12189122;19;20575;-82
2022/06/27 04:47:07;;;;;;;79.78;27.55;;;;;;;18.79;100.00;99551.19;12212077;19;20464;-81
2022/06/27 04:51:36;;;;;;;80.68;27.20;;;;;;;18.80;100.00;99536.13;12211461;19;20021;-81
2022/06/27 04:55:38;;;;;;;67.30;26.42;;;;;;;18.79;100.00;99533.63;12182775;19;20010;-80
2022/06/27 04:59:40;;;;;;;70.78;25.40;;;;;;;18.80;100.00;99526.91;12205273;19;20094;-81
2022/06/27 05:03:56;;;;;;;58.90;24.10;;;;;;;18.86;100.00;99525.69;12188329;19;20110;-80
2022/06/27 05:08:05;;;;;;;54.70;23.75;;;;;;;18.92;100.00;99549.56;12215866;19;20018;-80
2022/06/27 05:12:13;;;;;;;81.38;24.77;;;;;;;18.97;100.00;99548.59;12213950;19;20002;-78
2022/06/27 05:16:16;;;;;;;56.58;21.50;;;;;;;19.05;100.00;99562.66;12183254;19;20015;-80
2022/06/27 05:20:20;;;;;;;62.83;23.65;;;;;;;19.12;100.00;99582.59;12209416;19;20109;-80
2022/06/27 05:24:27;;;;;;;72.55;21.95;;;;;;;19.21;100.00;99579.09;12209379;19;20082;-81
2022/06/27 05:28:30;;;;;;;52.63;19.60;;;;;;;19.20;100.00;99591.41;12186989;19;20037;-79
2022/06/27 05:32:36;;;;;;;42.65;19.67;;;;;;;19.16;100.00;99576.44;12195719;19;20021;-80
2022/06/27 05:36:38;;;;;;;48.27;16.27;;;;;;;19.09;100.00;99579.63;12200001;19;20011;-79
2022/06/27 05:40:41;;;;;;;37.30;17.00;;;;;;;19.09;100.00;99597.19;12182823;19;20011;-80
2022/06/27 05:44:43;;;;;;;42.10;17.63;;;;;;;19.11;100.00;99616.44;12204107;19;20042;-79
2022/06/27 05:48:46;;;;;;;;;;;;;;;19.17;100.00;99611.59;12210272;19;20010;-80
2022/06/27 05:53:03;;;;;;;45.20;18.65;;;;;;;19.28;100.00;99601.84;12185999;19;20341;-80
2022/06/27 05:57:07;;;;;;;32.55;15.00;;;;;;;19.38;100.00;99604.41;12201558;19;20041;-78
2022/06/27 06:01:10;;;;;;;35.28;15.63;;;;;;;19.46;100.00;99602.84;12191722;19;20006;-80
2022/06/27 06:05:14;;;;;;;33.00;14.82;;;;;;;19.53;100.00;99626.41;12196545;19;20034;-79
2022/06/27 06:09:16;;;;;;;29.58;14.15;;;;;;;19.62;100.00;99617.28;12180610;19;20022;-79
2022/06/27 06:13:18;;;;;;;26.20;14.30;;;;;;;19.80;100.00;99614.34;12186000;19;20028;-80
2022/06/27 06:17:21;;;;;;;28.07;13.77;;;;;;;19.92;100.00;99640.94;12200016;19;20734;-80
2022/06/27 06:21:25;;;;;;;34.40;15.10;;;;;;;19.97;100.00;99644.44;12206341;19;20604;-81
2022/06/27 06:25:27;;;;;;;22.42;12.63;;;;;;;20.03;100.00;99645.97;12186130;19;20010;-80
2022/06/27 06:29:30;;;;;;;21.77;12.52;;;;;;;20.10;100.00;99639.09;12205243;19;20007;-81
2022/06/27 06:33:35;;;;;;;25.73;13.50;;;;;;;20.12;100.00;99637.66;12201754;19;20010;-80
2022/06/27 06:37:41;;;;;;;30.48;14.65;;;;;;;20.09;100.00;99629.88;12180247;19;20010;-81
2022/06/27 06:41:44;;;;;;;27.08;13.52;;;;;;;20.09;100.00;99624.28;12204051;19;20019;-81
2022/06/27 06:45:46;;;;;;;21.55;13.35;;;;;;;20.22;100.00;99636.56;12202778;19;20006;-81
2022/06/27 06:49:56;;;;;;;21.48;11.90;;;;;;;20.42;100.00;99629.63;12182021;19;20007;-81
2022/06/27 06:53:58;;;;;;;21.48;12.15;;;;;;;20.78;100.00;99637.91;12206230;19;20002;-81
2022/06/27 06:58:00;;;;;;;21.15;11.95;;;;;;;21.00;100.00;99634.22;12174023;19;20007;-81
2022/06/27 07:02:03;;;;;;;18.02;11.60;;;;;;;21.26;100.00;99641.88;12201440;19;20029;-81
2022/06/27 07:06:05;;;;;;;20.65;11.18;;;;;;;21.39;100.00;99644.59;12209901;19;20059;-81
2022/06/27 07:10:08;;;;;;;17.53;12.10;;;;;;;21.52;100.00;99645.59;12178748;19;20070;-82
2022/06/27 07:14:09;;;;;;;17.23;11.05;;;;;;;21.69;100.00;99656.03;12201181;19;20011;-82
2022/06/27 07:18:13;;;;;;;20.23;10.65;;;;;;;21.71;100.00;99670.53;12194346;19;20011;-81
2022/06/27 07:22:19;;;;;;;17.05;10.98;;;;;;;21.44;100.00;99659.59;12194902;19;20443;-82
2022/06/27 07:26:23;;;;;;;19.25;11.27;;;;;;;21.25;100.00;99666.28;12215848;19;20006;-82
2022/06/27 07:30:25;;;;;;;16.00;10.20;;;;;;;21.23;100.00;99676.97;12201954;19;20010;-82
2022/06/27 07:34:28;;;;;;;16.70;10.90;;;;;;;21.33;100.00;99678.69;12185452;19;20010;-82
2022/06/27 07:38:32;;;;;;;12.50;8.57;;;;;;;21.30;100.00;99687.75;12207491;19;20090;-82
2022/06/27 07:42:35;;;;;;;13.07;8.43;;;;;;;21.15;100.00;99691.81;12217945;19;20490;-83
2022/06/27 07:46:39;;;;;;;16.65;8.82;;;;;;;20.97;100.00;99681.66;12183081;19;20062;-83
2022/06/27 07:50:42;;;;;;;14.70;8.20;;;;;;;20.90;100.00;99685.75;12217534;19;20023;-83
2022/06/27 07:54:44;;;;;;;10.80;7.22;;;;;;;20.98;100.00;99691.72;12209193;19;20706;-84
2022/06/27 07:59:00;;;;;;;12.30;7.70;;;;;;;21.10;100.00;99677.94;12184567;19;20006;-85
2022/06/27 08:03:36;;;;;;;12.85;8.20;;;;;;;21.01;100.00;99677.91;12215256;19;20003;-83
2022/06/27 08:07:52;;;;;;;12.73;8.15;;;;;;;20.90;100.00;99674.53;12186444;19;20380;-84
2022/06/27 08:11:55;;;;;;;12.40;7.95;;;;;;;20.79;100.00;99687.19;12214943;19;20003;-84
2022/06/27 08:15:58;;;;;;;14.75;8.73;;;;;;;20.86;100.00;99690.34;12180918;19;20456;-82
2022/06/27 08:20:07;;;;;;;11.98;7.85;;;;;;;21.03;100.00;99684.00;12205653;19;20014;-85
2022/06/27 08:24:28;;;;;;;8.88;6.65;;;;;;;21.58;100.00;99672.34;12210686;19;20006;-83
2022/06/27 08:28:35;;;;;;;11.77;6.55;;;;;;;21.94;100.00;99709.69;12185560;19;20034;-84
2022/06/27 08:32:36;;;;;;;11.95;6.43;;;;;;;22.33;100.00;99707.91;12207160;19;20011;-84
2022/06/27 08:36:40;;;;;;;8.23;6.50;;;;;;;22.60;100.00;99709.53;12216140;19;20373;-85
2022/06/27 08:40:42;;;;;;;;;;;;;;;22.38;100.00;99721.78;12193853;19;20021;-84
2022/06/27 08:44:44;;;;;;;8.48;6.70;;;;;;;22.08;100.00;99739.25;12217649;19;19907;-84
2022/06/27 08:48:49;;;;;;;8.50;5.35;;;;;;;22.15;100.00;99730.31;12205531;19;20334;-84
2022/06/27 08:52:52;;;;;;;9.27;6.18;;;;;;;22.60;100.00;99717.97;12192369;19;20007;-83
2022/06/27 08:56:56;;;;;;;7.35;5.32;;;;;;;22.69;100.00;99736.44;12208487;19;20006;-83
2022/06/27 09:00:58;;;;;;;6.90;4.93;;;;;;;22.79;100.00;99749.31;12185153;19;20027;-83
2022/06/27 09:05:02;;;;;;;7.20;5.25;;;;;;;22.85;100.00;99749.97;12213771;19;20479;-83
2022/06/27 09:09:08;;;;;;;9.05;5.38;;;;;;;22.79;100.00;99740.09;12191170;19;20369;-82
2022/06/27 09:13:16;;;;;;;7.50;4.80;;;;;;;22.79;100.00;99737.28;12183875;19;20030;-83
2022/06/27 09:17:17;;;;;;;5.93;4.50;;;;;;;22.83;100.00;99741.06;12198888;19;20094;-82
2022/06/27 09:21:22;;;;;;;9.63;4.60;;;;;;;22.97;100.00;99738.91;12202689;19;20007;-83
2022/06/27 09:25:26;;;;;;;5.82;4.38;;;;;;;23.05;100.00;99746.47;12183622;19;20075;-82
2022/06/27 09:29:28;;;;;;;7.22;4.60;;;;;;;23.44;100.00;99752.97;12208325;19;20010;-82
2022/06/27 09:33:31;;;;;;;9.07;5.17;;;;;;;23.98;100.00;99760.81;12199031;19;20073;-83
2022/06/27 09:37:55;;;;;;;6.28;4.70;;;;;;;24.79;100.00;99751.06;12186458;19;20006;-83
2022/06/27 09:42:05;;;;;;;5.88;4.32;;;;;;;25.20;98.76;99738.88;12204390;19;20014;-83
2022/06/27 09:46:11;;;;;;;7.70;4.53;;;;;;;25.56;97.11;99736.47;12183527;19;20015;-81
2022/06/27 09:50:14;;;;;;;5.75;3.83;;;;;;;25.59;87.54;99745.03;12203096;19;20484;-81
2022/06/27 09:54:22;;;;;;;4.43;3.38;;;;;;;25.91;89.33;99757.41;12211323;19;20034;-81
2022/06/27 09:58:25;;;;;;;7.18;4.15;;;;;;;25.91;88.09;99771.53;12176952;19;20089;-82
2022/06/27 10:02:28;;;;;;;5.97;3.15;;;;;;;26.13;86.22;99758.06;12205298;19;20070;-82
2022/06/27 10:06:30;;;;;;;6.18;3.40;;;;;;;26.02;85.51;99762.56;12208249;19;20007;-82
2022/06/27 10:11:00;;;;;;;5.60;3.10;;;;;;;25.82;85.98;99762.34;12183162;19;20007;-81
2022/06/27 10:15:10;;;;;;;6.97;3.63;;;;;;;26.39;83.36;99785.09;12201263;19;20115;-82
2022/06/27 10:19:14;;;;;;;10.50;4.10;;;;;;;26.72;79.70;99773.59;12170589;19;20015;-83
2022/06/27 10:23:18;;;;;;;6.10;3.80;;;;;;;26.83;77.43;99780.38;12201498;19;20575;-81
2022/06/27 10:27:30;;;;;;;5.68;4.03;;;;;;;26.85;76.59;99775.19;12197129;19;20014;-83
2022/06/27 10:31:44;;;;;;;7.63;4.63;;;;;;;26.51;78.08;99793.56;12183568;19;20041;-82
2022/06/27 10:36:15;;;;;;;7.63;4.25;;;;;;;26.18;79.06;99791.72;12205100;19;20053;-82
2022/06/27 10:40:20;;;;;;;9.18;4.63;;;;;;;26.26;75.61;99779.44;12186161;19;20527;-81
2022/06/27 10:44:30;;;;;;;8.88;5.07;;;;;;;26.10;73.32;99770.91;12207440;19;20069;-81
2022/06/27 10:48:47;;;;;;;5.13;3.63;;;;;;;26.05;72.51;99775.97;12192726;19;20023;-81
2022/06/27 10:52:51;;;;;;;5.95;4.07;;;;;;;26.47;67.60;99775.63;12185457;19;20531;-81
2022/06/27 10:56:55;;;;;;;6.90;4.45;;;;;;;26.56;66.36;99777.19;12206473;19;20014;-82
2022/06/27 11:01:19;;;;;;;8.07;4.60;;;;;;;25.77;66.96;99779.47;12182352;19;20477;-80
2022/06/27 11:05:21;;;;;;;8.65;4.80;;;;;;;24.98;71.29;99793.63;12216421;19;20007;-79
2022/06/27 11:09:35;;;;;;;7.28;3.90;;;;;;;24.34;71.94;99791.22;12216963;19;20098;-78
2022/06/27 11:13:39;;;;;;;5.40;3.80;;;;;;;23.98;74.05;99812.31;12195667;19;20010;-78
2022/06/27 11:17:45;;;;;;;6.47;4.10;;;;;;;23.46;74.63;99834.16;12212235;19;20014;-79
2022/06/27 11:21:47;;;;;;;6.00;4.55;;;;;;;23.19;76.23;99837.03;12201327;19;20464;-79
2022/06/27 11:25:50;;;;;;;5.88;4.13;;;;;;;23.08;76.22;99846.16;12197343;19;20007;-81
2022/06/27 11:34:15;;;;;;;5.32;4.35;;;;;;;23.36;79.30;99819.31;12198448;19;20011;-76
2022/06/27 11:38:22;;;;;;;9.25;4.80;;;;;;;24.05;78.35;99823.84;12249766;19;20010;-80
2022/06/27 11:42:35;;;;;;;7.53;4.75;;;;;;;24.64;74.53;99836.25;12220630;19;20133;-81
2022/06/27 11:46:51;;;;;;;8.48;5.32;;;;;;;24.61;73.91;99842.56;12186203;19;20027;-81
2022/06/27 11:50:53;;;;;;;8.55;5.72;;;;;;;24.76;73.09;99834.31;12214562;19;20071;-80
2022/06/27 11:55:09;;;;;;;9.67;6.37;;;;;;;25.12;71.09;99840.44;12198552;19;20011;-81
2022/06/27 11:59:13;;;;;;;8.60;5.93;;;;;;;25.44;70.11;99848.09;12207939;19;20290;-80
2022/06/27 12:03:14;;;;;;;10.88;5.95;;;;;;;26.00;69.53;99832.66;12210026;19;20018;-82
2022/06/27 12:07:16;;;;;;;9.10;5.33;;;;;;;26.06;68.27;99825.63;12189715;19;20497;-79
2022/06/27 12:11:25;;;;;;;10.00;5.27;;;;;;;26.49;68.08;99829.81;12215412;19;20036;-80
2022/06/27 12:15:28;;;;;;;8.40;4.95;;;;;;;26.84;65.27;99834.91;12209570;19;20018;-83
2022/06/27 12:19:30;;;;;;;6.82;3.60;;;;;;;26.92;61.84;99840.44;12192556;19;20098;-79
2022/06/27 12:23:31;;;;;;;4.10;2.30;;;;;;;27.16;57.35;99814.06;12208296;19;20010;-83
2022/06/27 12:27:33;;;;;;;3.13;1.63;;;;;;;27.20;55.17;99819.81;12218962;19;20025;-85
2022/06/27 12:31:36;;;;;;;1.93;1.50;;;;;;;27.27;55.79;99822.84;12190242;19;20086;-82
2022/06/27 12:35:39;;;;;;;1.58;1.15;;;;;;;27.33;53.26;99829.06;12213334;19;20258;-84
2022/06/27 12:39:40;;;;;;;;;;;;;;;27.41;52.44;99834.56;12213539;19;20011;-84
2022/06/27 12:43:46;;;;;;;2.45;0.90;;;;;;;27.13;51.88;99845.88;12194236;19;19906;-83
2022/06/27 12:47:48;;;;;;;2.33;1.08;;;;;;;26.76;52.98;99848.81;12203811;19;20420;-84
2022/06/27 12:51:49;;;;;;;2.37;1.13;;;;;;;26.66;54.46;99823.09;12219590;19;20471;-81
2022/06/27 12:55:52;;;;;;;1.25;1.00;;;;;;;26.68;54.18;99810.25;12183471;19;20098;-84
2022/06/27 12:59:54;;;;;;;5.05;1.40;;;;;;;27.07;53.44;99821.03;12210759;19;20007;-84
2022/06/27 13:03:55;;;;;;;3.57;1.47;;;;;;;27.34;52.39;99831.53;12197395;19;20018;-84
2022/06/27 13:07:57;;;;;;;2.20;1.10;;;;;;;28.95;48.32;99826.97;12210443;19;20240;-86
2022/06/27 13:11:59;;;;;;;;;;;;;;;29.35;47.06;99839.13;12217339;19;20248;-84
2022/06/27 13:16:01;;;;;;;1.02;0.85;;;;;;;29.17;47.25;99831.06;12185525;19;19999;-85
2022/06/27 13:20:07;;;;;;;3.13;1.48;;;;;;;28.82;46.89;99840.47;12204078;19;20014;-85
2022/06/27 13:24:09;;;;;;;2.30;1.33;;;;;;;29.52;46.55;99842.28;12203984;19;20134;-85
2022/06/27 13:28:16;;;;;;;1.17;0.80;;;;;;;29.87;44.95;99849.84;12187754;19;20079;-80
2022/06/27 13:32:18;;;;;;;;;;;;;;;29.13;44.67;99854.91;12212737;19;20015;-83
2022/06/27 13:36:20;;;;;;;0.95;0.85;;;;;;;28.30;46.69;99858.69;12206851;19;19966;-85
2022/06/27 13:40:22;;;;;;;2.10;1.17;;;;;;;27.72;47.36;99870.56;12181294;19;20011;-82
2022/06/27 13:44:23;;;;;;;0.98;0.70;;;;;;;26.95;49.02;99886.94;12204290;19;20463;-80
2022/06/27 13:48:25;;;;;;;2.88;1.05;;;;;;;26.91;49.47;99894.50;12213835;19;20006;-84
2022/06/27 13:52:27;;;;;;;1.35;1.00;;;;;;;26.78;49.92;99888.06;12190478;19;20010;-82
2022/06/27 13:56:28;;;;;;;1.35;1.10;;;;;;;26.74;50.65;99882.31;12211567;19;20006;-84
2022/06/27 14:00:31;;;;;;;1.70;1.10;;;;;;;28.67;48.37;99883.03;12209159;19;20014;-82
2022/06/27 14:04:34;;;;;;;2.33;1.20;;;;;;;30.75;43.26;99897.13;12177192;19;20006;-83
2022/06/27 14:08:36;;;;;;;2.03;1.45;;;;;;;31.74;40.14;99896.78;12206375;19;20035;-83
2022/06/27 14:12:38;;;;;;;3.67;1.50;;;;;;;33.05;38.74;99898.28;12215454;19;20479;-83
2022/06/27 14:16:41;;;;;;;1.50;1.40;;;;;;;33.96;36.17;99901.00;12185271;19;20097;-82
2022/06/27 14:20:43;;;;;;;1.65;1.40;;;;;;;34.08;36.40;99905.53;12210655;19;20010;-84
2022/06/27 14:24:44;;;;;;;3.92;1.85;;;;;;;32.95;37.69;99901.03;12207728;19;20006;-86
2022/06/27 14:28:46;;;;;;;;;;;;;;;31.06;39.28;99904.50;12183231;19;20045;-84
2022/06/27 14:32:48;;;;;;;3.47;1.70;;;;;;;30.13;40.96;99907.91;12211056;19;19966;-83
2022/06/27 14:37:10;;;;;;;5.45;1.40;;;;;;;29.89;41.15;99904.25;12183736;19;20010;-81
2022/06/27 14:41:12;;;;;;;5.68;1.40;;;;;;;29.45;41.86;99913.13;12206718;19;20082;-80
2022/06/27 14:45:14;;;;;;;3.97;1.45;;;;;;;29.06;42.23;99918.81;12199437;19;20011;-84
2022/06/27 14:49:15;;;;;;;4.15;1.42;;;;;;;29.47;42.28;99918.41;12183496;19;20036;-81
2022/06/27 14:53:17;;;;;;;2.13;1.58;;;;;;;29.81;42.09;99922.38;12204567;19;20018;-85
2022/06/27 14:57:19;;;;;;;;;;;;;;;29.64;43.27;99922.84;12195235;19;20018;-83
2022/06/27 15:01:21;;;;;;;2.17;1.27;;;;;;;30.26;41.92;99915.06;12177233;19;19975;-81
2022/06/27 15:05:24;;;;;;;2.00;1.20;;;;;;;29.47;42.41;99924.09;12208398;19;20025;-84
2022/06/27 15:09:26;;;;;;;3.90;1.70;;;;;;;28.54;45.04;99911.53;12200065;19;20041;-80
2022/06/27 15:13:27;;;;;;;2.63;1.40;;;;;;;28.72;44.94;99914.78;12238365;19;20044;-79
2022/06/27 15:17:29;;;;;;;3.22;1.58;;;;;;;29.59;43.92;99901.22;12213280;19;20027;-84
2022/06/27 15:21:31;;;;;;;5.50;1.40;;;;;;;31.57;39.54;99890.91;12204885;19;20027;-84
2022/06/27 15:25:52;;;;;;;2.53;1.42;;;;;;;32.73;37.20;99902.97;12186294;19;20353;-83
2022/06/27 15:29:55;;;;;;;1.60;1.38;;;;;;;32.56;37.60;99887.34;12210051;19;20014;-82
2022/06/27 15:33:57;;;;;;;1.65;1.20;;;;;;;31.32;38.02;99900.78;12199127;19;20006;-82
2022/06/27 15:37:59;;;;;;;4.70;1.48;;;;;;;29.50;40.55;99906.31;12181418;19;20007;-83
2022/06/27 15:42:00;;;;;;;2.85;1.30;;;;;;;27.68;44.11;99895.13;12213810;19;20015;-83
2022/06/27 15:46:03;;;;;;;2.15;1.15;;;;;;;27.14;45.75;99904.09;12193255;19;20015;-83
2022/06/27 15:50:06;;;;;;;1.92;1.17;;;;;;;26.95;46.44;99901.06;12206267;19;20036;-82
2022/06/27 15:54:07;;;;;;;1.30;1.20;;;;;;;26.52;45.89;99911.06;12204262;19;20010;-83
2022/06/27 15:58:09;;;;;;;2.47;1.23;;;;;;;26.21;45.33;99920.94;12187696;19;20011;-80
2022/06/27 16:02:11;;;;;;;3.47;1.20;;;;;;;25.44;47.71;99923.44;12197878;19;20610;-81
2022/06/27 16:06:14;;;;;;;2.53;1.25;;;;;;;25.43;48.25;99928.28;12215256;19;20010;-81
2022/06/27 16:10:16;;;;;;;2.83;1.20;;;;;;;25.68;47.13;99920.69;12181851;19;20047;-82
2022/06/27 16:14:18;;;;;;;1.92;1.48;;;;;;;25.71;46.31;99909.91;12205857;19;20496;-80
2022/06/27 16:18:19;;;;;;;1.10;0.85;;;;;;;25.43;47.72;99921.78;12194946;19;20066;-79
2022/06/27 16:22:22;;;;;;;7.93;1.60;;;;;;;25.46;47.79;99915.44;12186030;19;20020;-80
2022/06/27 16:26:24;;;;;;;3.38;1.40;;;;;;;25.76;47.98;99918.13;12199139;19;20006;-82
2022/06/27 16:34:47;;;;;;;1.98;1.23;;;;;;;25.62;48.25;99929.75;12182074;19;20013;-84
2022/06/27 16:38:49;;;;;;;0.80;0.80;;;;;;;25.64;46.97;99938.66;12205774;19;20014;-81
2022/06/27 16:47:11;;;;;;;1.25;0.80;;;;;;;25.75;47.32;99934.22;12175565;19;20452;-80
2022/06/27 16:51:12;;;;;;;2.47;0.97;;;;;;;25.85;46.57;99936.66;12208738;19;20030;-82
2022/06/27 16:55:14;;;;;;;1.90;1.23;;;;;;;25.97;46.88;99941.50;12180716;19;20019;-79
2022/06/27 16:59:16;;;;;;;2.57;1.00;;;;;;;25.62;48.20;99952.31;12199518;19;20078;-80
2022/06/27 17:03:18;;;;;;;2.73;1.00;;;;;;;25.46;48.15;99957.75;12207151;19;20022;-80
2022/06/27 17:07:20;;;;;;;3.17;1.20;;;;;;;25.51;48.23;99951.09;12182069;19;20511;-79
2022/06/27 17:11:21;;;;;;;2.20;1.00;;;;;;;25.58;47.70;99959.81;12213206;19;20014;-80
2022/06/27 17:15:23;;;;;;;1.88;1.02;;;;;;;25.62;47.14;99957.97;12208825;19;20014;-80
2022/06/27 17:19:24;;;;;;;1.50;1.00;;;;;;;25.58;47.57;99968.28;12176993;19;20497;-80
2022/06/27 17:23:26;;;;;;;2.20;0.90;;;;;;;25.53;46.95;99977.78;12194251;19;20007;-80
2022/06/27 17:27:28;;;;;;;1.73;1.17;;;;;;;25.14;47.85;99982.78;12210771;19;20034;-78
2022/06/27 17:31:29;;;;;;;2.60;0.83;;;;;;;24.72;48.77;99970.59;12187380;19;20834;-81
2022/06/27 17:35:31;;;;;;;2.03;1.07;;;;;;;24.40;49.80;99969.25;12197060;19;20003;-79
2022/06/27 17:39:33;;;;;;;3.00;1.17;;;;;;;24.26;50.90;99969.47;12216076;19;20441;-81
2022/06/27 17:43:35;;;;;;;1.67;1.00;;;;;;;24.04;50.99;99962.94;12188585;19;20025;-80
2022/06/27 17:47:36;;;;;;;1.40;1.00;;;;;;;23.91;51.04;99966.78;12207467;19;20011;-82
2022/06/27 17:51:38;;;;;;;0.80;0.70;;;;;;;23.79;50.53;99978.72;12204202;19;20031;-79
2022/06/27 17:55:41;;;;;;;3.80;1.10;;;;;;;23.70;50.66;99979.91;12184814;19;20006;-81
2022/06/27 17:59:42;;;;;;;1.85;0.82;;;;;;;23.54;51.59;100000.09;12207616;19;20078;-81
2022/06/27 18:03:44;;;;;;;1.73;0.90;;;;;;;23.48;51.81;99992.16;12203266;19;20057;-80
2022/06/27 18:07:46;;;;;;;1.60;0.87;;;;;;;23.50;51.99;100001.06;12186611;19;20559;-80
2022/06/27 18:11:49;;;;;;;2.67;1.02;;;;;;;23.43;51.89;100015.63;12208321;19;20069;-79
2022/06/27 18:15:51;;;;;;;1.63;0.93;;;;;;;23.38;52.14;100019.47;12195404;19;20033;-80
2022/06/27 18:19:53;;;;;;;1.23;0.90;;;;;;;23.28;52.76;100030.19;12170558;19;20017;-80
2022/06/27 18:23:55;;;;;;;3.05;0.80;;;;;;;23.14;53.52;100019.94;12213843;19;20041;-80
2022/06/27 18:27:58;;;;;;;2.95;1.00;;;;;;;23.02;53.97;100022.53;12204991;19;20045;-80
2022/06/27 18:32:02;;;;;;;1.75;0.77;;;;;;;22.97;53.77;100019.91;12178462;19;20467;-78
2022/06/27 18:36:05;;;;;;;3.00;1.08;;;;;;;22.90;54.14;100027.94;12209411;19;20391;-80
2022/06/27 18:40:08;;;;;;;1.98;0.82;;;;;;;22.82;55.29;100026.78;12190088;19;20075;-80
2022/06/27 18:44:10;;;;;;;2.28;0.90;;;;;;;22.72;55.90;100036.31;12202187;19;20027;-81
2022/06/27 18:48:12;;;;;;;1.48;1.17;;;;;;;22.64;56.70;100039.13;12190655;19;20411;-79
2022/06/27 18:52:14;;;;;;;2.65;1.08;;;;;;;22.58;57.04;100035.63;12184902;19;20014;-79
2022/06/27 18:56:16;;;;;;;2.30;1.00;;;;;;;22.48;57.58;100028.31;12203287;19;20070;-79